sensor_id;sensor_type;location;lat;lon;timestamp;temperature;humidity
78708;SHT31;68037;51.978;5.650;2023-05-10T00:00:15;15.9;78.0
78708;SHT31;68037;51.978;5.650;2023-05-10T00:02:45;15.9;78.7
78708;SHT31;68037;51.978;5.650;2023-05-10T00:05:14;15.9;78.3
78708;SHT31;68037;51.978;5.650;2023-05-10T00:07:44;15.9;79.5
78708;SHT31;68037;51.978;5.650;2023-05-10T00:10:13;15.9;79.1
78708;SHT31;68037;51.978;5.650;2023-05-10T00:12:43;15.9;78.7
78708;SHT31;68037;51.978;5.650;2023-05-10T00:15:14;15.9;78.5
78708;SHT31;68037;51.978;5.650;2023-05-10T00:17:43;16.0;79.2
78708;SHT31;68037;51.978;5.650;2023-05-10T00:20:13;16.0;79.6
78708;SHT31;68037;51.978;5.650;2023-05-10T00:22:43;16.1;78.5
78708;SHT31;68037;51.978;5.650;2023-05-10T00:25:12;16.2;78.4
78708;SHT31;68037;51.978;5.650;2023-05-10T00:27:43;16.3;77.8
78708;SHT31;68037;51.978;5.650;2023-05-10T00:30:13;16.4;77.8
78708;SHT31;68037;51.978;5.650;2023-05-10T00:32:43;16.5;76.3
78708;SHT31;68037;51.978;5.650;2023-05-10T00:35:14;16.5;76.0
78708;SHT31;68037;51.978;5.650;2023-05-10T00:37:44;16.5;76.5
78708;SHT31;68037;51.978;5.650;2023-05-10T00:40:14;16.5;76.0
78708;SHT31;68037;51.978;5.650;2023-05-10T00:42:43;16.5;75.8
78708;SHT31;68037;51.978;5.650;2023-05-10T00:45:12;16.5;76.4
78708;SHT31;68037;51.978;5.650;2023-05-10T00:47:42;16.5;76.5
78708;SHT31;68037;51.978;5.650;2023-05-10T00:50:13;16.4;76.4
78708;SHT31;68037;51.978;5.650;2023-05-10T00:52:44;16.4;76.0
78708;SHT31;68037;51.978;5.650;2023-05-10T00:55:13;16.4;76.5
78708;SHT31;68037;51.978;5.650;2023-05-10T00:57:43;16.4;76.2
78708;SHT31;68037;51.978;5.650;2023-05-10T01:00:18;16.3;77.0
78708;SHT31;68037;51.978;5.650;2023-05-10T01:02:55;16.3;76.9
78708;SHT31;68037;51.978;5.650;2023-05-10T01:05:24;16.4;77.4
78708;SHT31;68037;51.978;5.650;2023-05-10T01:07:54;16.4;77.4
78708;SHT31;68037;51.978;5.650;2023-05-10T01:10:25;16.4;77.5
78708;SHT31;68037;51.978;5.650;2023-05-10T01:12:55;16.4;77.2
78708;SHT31;68037;51.978;5.650;2023-05-10T01:15:26;16.4;77.4
78708;SHT31;68037;51.978;5.650;2023-05-10T01:17:56;16.4;76.9
78708;SHT31;68037;51.978;5.650;2023-05-10T01:20:32;16.5;77.5
78708;SHT31;68037;51.978;5.650;2023-05-10T01:23:27;16.5;76.5
78708;SHT31;68037;51.978;5.650;2023-05-10T01:26:19;16.6;76.2
78708;SHT31;68037;51.978;5.650;2023-05-10T01:29:17;16.6;76.6
78708;SHT31;68037;51.978;5.650;2023-05-10T01:32:12;16.5;76.5
78708;SHT31;68037;51.978;5.650;2023-05-10T01:34:50;16.5;76.7
78708;SHT31;68037;51.978;5.650;2023-05-10T01:37:31;16.5;77.0
78708;SHT31;68037;51.978;5.650;2023-05-10T01:40:13;16.5;76.9
78708;SHT31;68037;51.978;5.650;2023-05-10T01:42:49;16.5;76.7
78708;SHT31;68037;51.978;5.650;2023-05-10T01:45:27;16.5;76.9
78708;SHT31;68037;51.978;5.650;2023-05-10T01:48:05;16.5;77.0
78708;SHT31;68037;51.978;5.650;2023-05-10T01:50:37;16.5;76.7
78708;SHT31;68037;51.978;5.650;2023-05-10T01:53:10;16.6;76.7
78708;SHT31;68037;51.978;5.650;2023-05-10T01:55:46;16.6;76.4
78708;SHT31;68037;51.978;5.650;2023-05-10T01:58:21;16.6;76.3
78708;SHT31;68037;51.978;5.650;2023-05-10T02:00:53;16.6;76.1
78708;SHT31;68037;51.978;5.650;2023-05-10T02:03:25;16.6;76.1
78708;SHT31;68037;51.978;5.650;2023-05-10T02:05:57;16.6;75.7
78708;SHT31;68037;51.978;5.650;2023-05-10T02:08:32;16.6;76.2
78708;SHT31;68037;51.978;5.650;2023-05-10T02:11:07;16.7;75.6
78708;SHT31;68037;51.978;5.650;2023-05-10T02:13:39;16.7;75.6
78708;SHT31;68037;51.978;5.650;2023-05-10T02:16:09;16.8;75.2
78708;SHT31;68037;51.978;5.650;2023-05-10T02:18:41;16.8;75.2
78708;SHT31;68037;51.978;5.650;2023-05-10T02:21:12;16.8;74.8
78708;SHT31;68037;51.978;5.650;2023-05-10T02:23:43;16.8;74.8
78708;SHT31;68037;51.978;5.650;2023-05-10T02:26:18;16.9;74.7
78708;SHT31;68037;51.978;5.650;2023-05-10T02:28:51;16.8;73.7
78708;SHT31;68037;51.978;5.650;2023-05-10T02:31:23;16.8;74.2
78708;SHT31;68037;51.978;5.650;2023-05-10T02:33:56;16.8;73.7
78708;SHT31;68037;51.978;5.650;2023-05-10T02:36:29;16.7;74.3
78708;SHT31;68037;51.978;5.650;2023-05-10T02:39:01;16.7;74.7
78708;SHT31;68037;51.978;5.650;2023-05-10T02:41:42;16.6;74.9
78708;SHT31;68037;51.978;5.650;2023-05-10T02:44:19;16.7;74.7
78708;SHT31;68037;51.978;5.650;2023-05-10T02:46:55;16.7;74.4
78708;SHT31;68037;51.978;5.650;2023-05-10T02:49:26;16.7;74.5
78708;SHT31;68037;51.978;5.650;2023-05-10T02:52:00;16.7;74.2
78708;SHT31;68037;51.978;5.650;2023-05-10T02:54:33;16.7;73.8
78708;SHT31;68037;51.978;5.650;2023-05-10T02:57:13;16.6;73.4
78708;SHT31;68037;51.978;5.650;2023-05-10T02:59:45;16.6;73.3
78708;SHT31;68037;51.978;5.650;2023-05-10T03:02:15;16.5;73.9
78708;SHT31;68037;51.978;5.650;2023-05-10T03:04:44;16.5;74.2
78708;SHT31;68037;51.978;5.650;2023-05-10T03:07:14;16.4;74.4
78708;SHT31;68037;51.978;5.650;2023-05-10T03:09:46;16.3;74.5
78708;SHT31;68037;51.978;5.650;2023-05-10T03:12:25;16.3;74.4
78708;SHT31;68037;51.978;5.650;2023-05-10T03:15:03;16.2;74.6
78708;SHT31;68037;51.978;5.650;2023-05-10T03:17:44;16.2;75.1
78708;SHT31;68037;51.978;5.650;2023-05-10T03:20:22;16.1;75.3
78708;SHT31;68037;51.978;5.650;2023-05-10T03:23:02;16.1;75.4
78708;SHT31;68037;51.978;5.650;2023-05-10T03:25:35;16.0;75.8
78708;SHT31;68037;51.978;5.650;2023-05-10T03:28:07;16.0;76.1
78708;SHT31;68037;51.978;5.650;2023-05-10T03:30:38;15.9;75.8
78708;SHT31;68037;51.978;5.650;2023-05-10T03:33:08;15.9;76.4
78708;SHT31;68037;51.978;5.650;2023-05-10T03:35:40;15.9;76.2
78708;SHT31;68037;51.978;5.650;2023-05-10T03:38:09;15.8;76.2
78708;SHT31;68037;51.978;5.650;2023-05-10T03:40:39;15.8;76.4
78708;SHT31;68037;51.978;5.650;2023-05-10T03:43:08;15.8;76.7
78708;SHT31;68037;51.978;5.650;2023-05-10T03:45:40;15.8;76.8
78708;SHT31;68037;51.978;5.650;2023-05-10T03:48:09;15.8;76.8
78708;SHT31;68037;51.978;5.650;2023-05-10T03:50:41;15.8;76.7
78708;SHT31;68037;51.978;5.650;2023-05-10T03:53:10;15.9;76.2
78708;SHT31;68037;51.978;5.650;2023-05-10T03:55:40;15.9;76.3
78708;SHT31;68037;51.978;5.650;2023-05-10T03:58:14;15.9;76.2
78708;SHT31;68037;51.978;5.650;2023-05-10T04:00:45;15.9;75.6
78708;SHT31;68037;51.978;5.650;2023-05-10T04:03:15;15.9;75.5
78708;SHT31;68037;51.978;5.650;2023-05-10T04:05:44;15.9;76.2
78708;SHT31;68037;51.978;5.650;2023-05-10T04:08:14;15.9;75.5
78708;SHT31;68037;51.978;5.650;2023-05-10T04:10:44;15.9;75.8
78708;SHT31;68037;51.978;5.650;2023-05-10T04:13:13;15.8;76.0
78708;SHT31;68037;51.978;5.650;2023-05-10T04:15:43;15.8;76.2
78708;SHT31;68037;51.978;5.650;2023-05-10T04:18:12;15.8;76.9
78708;SHT31;68037;51.978;5.650;2023-05-10T04:20:43;15.8;76.2
78708;SHT31;68037;51.978;5.650;2023-05-10T04:23:13;15.8;77.1
78708;SHT31;68037;51.978;5.650;2023-05-10T04:25:48;15.8;76.3
78708;SHT31;68037;51.978;5.650;2023-05-10T04:28:19;15.9;76.1
78708;SHT31;68037;51.978;5.650;2023-05-10T04:30:50;16.0;75.4
78708;SHT31;68037;51.978;5.650;2023-05-10T04:33:19;16.2;75.4
78708;SHT31;68037;51.978;5.650;2023-05-10T04:35:49;16.3;74.6
78708;SHT31;68037;51.978;5.650;2023-05-10T04:38:18;16.4;73.7
78708;SHT31;68037;51.978;5.650;2023-05-10T04:40:48;16.5;73.6
78708;SHT31;68037;51.978;5.650;2023-05-10T04:43:17;16.6;72.8
78708;SHT31;68037;51.978;5.650;2023-05-10T04:45:48;16.6;72.5
78708;SHT31;68037;51.978;5.650;2023-05-10T04:48:17;16.7;72.2
78708;SHT31;68037;51.978;5.650;2023-05-10T04:50:47;16.7;72.3
78708;SHT31;68037;51.978;5.650;2023-05-10T04:53:16;16.7;72.2
78708;SHT31;68037;51.978;5.650;2023-05-10T04:55:46;16.7;72.3
78708;SHT31;68037;51.978;5.650;2023-05-10T04:58:16;16.6;72.3
78708;SHT31;68037;51.978;5.650;2023-05-10T05:00:46;16.6;72.6
78708;SHT31;68037;51.978;5.650;2023-05-10T05:03:15;16.5;72.9
78708;SHT31;68037;51.978;5.650;2023-05-10T05:05:45;16.5;73.5
78708;SHT31;68037;51.978;5.650;2023-05-10T05:08:14;16.5;73.7
78708;SHT31;68037;51.978;5.650;2023-05-10T05:10:44;16.4;74.0
78708;SHT31;68037;51.978;5.650;2023-05-10T05:13:14;16.4;74.5
78708;SHT31;68037;51.978;5.650;2023-05-10T05:15:44;16.3;74.3
78708;SHT31;68037;51.978;5.650;2023-05-10T05:18:13;16.3;74.4
78708;SHT31;68037;51.978;5.650;2023-05-10T05:20:44;16.3;74.3
78708;SHT31;68037;51.978;5.650;2023-05-10T05:23:13;16.3;74.5
78708;SHT31;68037;51.978;5.650;2023-05-10T05:25:43;16.2;75.1
78708;SHT31;68037;51.978;5.650;2023-05-10T05:28:13;16.2;75.2
78708;SHT31;68037;51.978;5.650;2023-05-10T05:30:42;16.3;75.1
78708;SHT31;68037;51.978;5.650;2023-05-10T05:33:15;16.3;75.1
78708;SHT31;68037;51.978;5.650;2023-05-10T05:35:47;16.4;74.8
78708;SHT31;68037;51.978;5.650;2023-05-10T05:38:18;16.5;74.9
78708;SHT31;68037;51.978;5.650;2023-05-10T05:40:47;16.5;74.4
78708;SHT31;68037;51.978;5.650;2023-05-10T05:43:17;16.4;73.9
78708;SHT31;68037;51.978;5.650;2023-05-10T05:45:47;16.4;74.2
78708;SHT31;68037;51.978;5.650;2023-05-10T05:48:18;16.4;74.4
78708;SHT31;68037;51.978;5.650;2023-05-10T05:50:50;16.3;74.3
78708;SHT31;68037;51.978;5.650;2023-05-10T05:53:23;16.3;74.4
78708;SHT31;68037;51.978;5.650;2023-05-10T05:55:54;16.3;75.2
78708;SHT31;68037;51.978;5.650;2023-05-10T05:58:24;16.2;75.4
78708;SHT31;68037;51.978;5.650;2023-05-10T06:00:55;16.2;75.4
78708;SHT31;68037;51.978;5.650;2023-05-10T06:03:24;16.2;75.3
78708;SHT31;68037;51.978;5.650;2023-05-10T06:05:54;16.2;75.4
78708;SHT31;68037;51.978;5.650;2023-05-10T06:08:23;16.1;75.7
78708;SHT31;68037;51.978;5.650;2023-05-10T06:10:53;16.1;75.9
78708;SHT31;68037;51.978;5.650;2023-05-10T06:13:24;16.1;76.1
78708;SHT31;68037;51.978;5.650;2023-05-10T06:15:56;16.1;75.7
78708;SHT31;68037;51.978;5.650;2023-05-10T06:18:26;16.0;75.9
78708;SHT31;68037;51.978;5.650;2023-05-10T06:20:55;16.0;76.2
78708;SHT31;68037;51.978;5.650;2023-05-10T06:23:27;16.0;76.6
78708;SHT31;68037;51.978;5.650;2023-05-10T06:25:57;16.0;76.6
78708;SHT31;68037;51.978;5.650;2023-05-10T06:28:26;16.0;76.5
78708;SHT31;68037;51.978;5.650;2023-05-10T06:30:55;16.0;76.1
78708;SHT31;68037;51.978;5.650;2023-05-10T06:33:25;16.0;76.4
78708;SHT31;68037;51.978;5.650;2023-05-10T06:35:55;16.0;76.2
78708;SHT31;68037;51.978;5.650;2023-05-10T06:38:25;16.0;76.6
78708;SHT31;68037;51.978;5.650;2023-05-10T06:40:55;16.0;76.4
78708;SHT31;68037;51.978;5.650;2023-05-10T06:43:24;16.0;76.7
78708;SHT31;68037;51.978;5.650;2023-05-10T06:45:55;15.9;76.9
78708;SHT31;68037;51.978;5.650;2023-05-10T06:48:27;15.9;77.2
78708;SHT31;68037;51.978;5.650;2023-05-10T06:50:56;15.9;77.3
78708;SHT31;68037;51.978;5.650;2023-05-10T06:53:26;15.9;77.4
78708;SHT31;68037;51.978;5.650;2023-05-10T06:55:55;15.9;77.2
78708;SHT31;68037;51.978;5.650;2023-05-10T06:58:25;15.9;76.9
78708;SHT31;68037;51.978;5.650;2023-05-10T07:01:05;15.9;77.3
78708;SHT31;68037;51.978;5.650;2023-05-10T07:03:36;15.9;77.2
78708;SHT31;68037;51.978;5.650;2023-05-10T07:06:06;15.9;77.4
78708;SHT31;68037;51.978;5.650;2023-05-10T07:08:35;15.9;77.4
78708;SHT31;68037;51.978;5.650;2023-05-10T07:11:06;15.9;77.7
78708;SHT31;68037;51.978;5.650;2023-05-10T07:13:36;16.0;78.1
78708;SHT31;68037;51.978;5.650;2023-05-10T07:16:12;16.1;77.3
78708;SHT31;68037;51.978;5.650;2023-05-10T07:18:42;16.2;76.4
78708;SHT31;68037;51.978;5.650;2023-05-10T07:21:12;16.3;75.2
78708;SHT31;68037;51.978;5.650;2023-05-10T07:23:41;16.3;75.2
78708;SHT31;68037;51.978;5.650;2023-05-10T07:26:10;16.3;74.7
78708;SHT31;68037;51.978;5.650;2023-05-10T07:28:42;16.3;75.1
78708;SHT31;68037;51.978;5.650;2023-05-10T07:31:11;16.3;74.8
78708;SHT31;68037;51.978;5.650;2023-05-10T07:33:41;16.3;74.9
78708;SHT31;68037;51.978;5.650;2023-05-10T07:36:10;16.2;75.1
78708;SHT31;68037;51.978;5.650;2023-05-10T07:38:40;16.2;75.3
78708;SHT31;68037;51.978;5.650;2023-05-10T07:41:10;16.2;76.0
78708;SHT31;68037;51.978;5.650;2023-05-10T07:43:40;16.2;76.4
78708;SHT31;68037;51.978;5.650;2023-05-10T07:46:11;16.2;76.6
78708;SHT31;68037;51.978;5.650;2023-05-10T07:48:41;16.2;75.4
78708;SHT31;68037;51.978;5.650;2023-05-10T07:51:11;16.3;74.4
78708;SHT31;68037;51.978;5.650;2023-05-10T07:53:41;16.2;74.0
78708;SHT31;68037;51.978;5.650;2023-05-10T07:56:24;16.2;74.2
78708;SHT31;68037;51.978;5.650;2023-05-10T07:58:57;16.2;73.5
78708;SHT31;68037;51.978;5.650;2023-05-10T08:01:30;16.2;74.9
78708;SHT31;68037;51.978;5.650;2023-05-10T08:04:01;16.2;74.8
78708;SHT31;68037;51.978;5.650;2023-05-10T08:06:30;16.2;74.1
78708;SHT31;68037;51.978;5.650;2023-05-10T08:09:00;16.2;73.3
78708;SHT31;68037;51.978;5.650;2023-05-10T08:11:29;16.2;72.3
78708;SHT31;68037;51.978;5.650;2023-05-10T08:13:59;16.2;72.4
78708;SHT31;68037;51.978;5.650;2023-05-10T08:16:29;16.2;72.4
78708;SHT31;68037;51.978;5.650;2023-05-10T08:18:59;16.2;72.9
78708;SHT31;68037;51.978;5.650;2023-05-10T08:21:29;16.2;73.1
78708;SHT31;68037;51.978;5.650;2023-05-10T08:23:58;16.2;72.5
78708;SHT31;68037;51.978;5.650;2023-05-10T08:26:28;16.2;71.0
78708;SHT31;68037;51.978;5.650;2023-05-10T08:28:57;16.2;70.3
78708;SHT31;68037;51.978;5.650;2023-05-10T08:31:27;16.2;70.9
78708;SHT31;68037;51.978;5.650;2023-05-10T08:33:56;16.2;71.3
78708;SHT31;68037;51.978;5.650;2023-05-10T08:36:26;16.2;71.8
78708;SHT31;68037;51.978;5.650;2023-05-10T08:38:56;16.2;72.3
78708;SHT31;68037;51.978;5.650;2023-05-10T08:41:25;16.2;71.2
78708;SHT31;68037;51.978;5.650;2023-05-10T08:43:55;16.2;71.6
78708;SHT31;68037;51.978;5.650;2023-05-10T08:46:26;16.2;73.1
78708;SHT31;68037;51.978;5.650;2023-05-10T08:48:59;16.2;72.2
78708;SHT31;68037;51.978;5.650;2023-05-10T08:51:36;16.3;71.1
78708;SHT31;68037;51.978;5.650;2023-05-10T08:54:14;16.4;71.0
78708;SHT31;68037;51.978;5.650;2023-05-10T08:56:48;16.6;68.7
78708;SHT31;68037;51.978;5.650;2023-05-10T08:59:18;16.6;68.0
78708;SHT31;68037;51.978;5.650;2023-05-10T09:01:50;16.7;68.3
78708;SHT31;68037;51.978;5.650;2023-05-10T09:04:21;16.7;67.3
78708;SHT31;68037;51.978;5.650;2023-05-10T09:06:51;16.7;68.0
78708;SHT31;68037;51.978;5.650;2023-05-10T09:09:21;16.7;68.1
78708;SHT31;68037;51.978;5.650;2023-05-10T09:11:51;16.7;67.7
78708;SHT31;68037;51.978;5.650;2023-05-10T09:14:23;16.7;68.4
78708;SHT31;68037;51.978;5.650;2023-05-10T09:16:54;16.8;68.7
78708;SHT31;68037;51.978;5.650;2023-05-10T09:19:24;16.8;68.1
78708;SHT31;68037;51.978;5.650;2023-05-10T09:21:53;16.8;68.7
78708;SHT31;68037;51.978;5.650;2023-05-10T09:24:30;16.8;69.9
78708;SHT31;68037;51.978;5.650;2023-05-10T09:27:01;16.9;68.3
78708;SHT31;68037;51.978;5.650;2023-05-10T09:29:42;17.0;68.7
78708;SHT31;68037;51.978;5.650;2023-05-10T09:32:14;17.1;68.9
78708;SHT31;68037;51.978;5.650;2023-05-10T09:34:44;17.2;68.0
78708;SHT31;68037;51.978;5.650;2023-05-10T09:37:13;17.2;67.6
78708;SHT31;68037;51.978;5.650;2023-05-10T09:39:43;17.2;67.8
78708;SHT31;68037;51.978;5.650;2023-05-10T09:42:12;17.3;67.8
78708;SHT31;68037;51.978;5.650;2023-05-10T09:44:42;17.3;66.3
78708;SHT31;68037;51.978;5.650;2023-05-10T09:47:17;17.2;67.6
78708;SHT31;68037;51.978;5.650;2023-05-10T09:49:49;17.2;68.1
78708;SHT31;68037;51.978;5.650;2023-05-10T09:52:18;17.3;67.8
78708;SHT31;68037;51.978;5.650;2023-05-10T09:54:53;17.3;66.6
78708;SHT31;68037;51.978;5.650;2023-05-10T09:57:24;17.3;66.3
78708;SHT31;68037;51.978;5.650;2023-05-10T09:59:54;17.3;66.9
78708;SHT31;68037;51.978;5.650;2023-05-10T10:02:30;17.3;66.2
78708;SHT31;68037;51.978;5.650;2023-05-10T10:05:00;17.3;66.4
78708;SHT31;68037;51.978;5.650;2023-05-10T10:07:33;17.3;67.0
78708;SHT31;68037;51.978;5.650;2023-05-10T10:10:03;17.3;66.5
78708;SHT31;68037;51.978;5.650;2023-05-10T10:12:38;17.3;66.4
78708;SHT31;68037;51.978;5.650;2023-05-10T10:15:09;17.3;66.2
78708;SHT31;68037;51.978;5.650;2023-05-10T10:17:39;17.2;65.8
78708;SHT31;68037;51.978;5.650;2023-05-10T10:20:10;17.2;66.9
78708;SHT31;68037;51.978;5.650;2023-05-10T10:22:40;17.2;67.2
78708;SHT31;68037;51.978;5.650;2023-05-10T10:25:13;17.3;66.6
78708;SHT31;68037;51.978;5.650;2023-05-10T10:27:56;17.3;65.8
78708;SHT31;68037;51.978;5.650;2023-05-10T10:30:28;17.3;65.8
78708;SHT31;68037;51.978;5.650;2023-05-10T10:34:50;17.3;66.5
78708;SHT31;68037;51.978;5.650;2023-05-10T10:37:20;17.5;65.9
78708;SHT31;68037;51.978;5.650;2023-05-10T10:39:50;17.5;66.3
78708;SHT31;68037;51.978;5.650;2023-05-10T10:42:46;17.6;66.9
78708;SHT31;68037;51.978;5.650;2023-05-10T10:45:17;17.6;66.1
78708;SHT31;68037;51.978;5.650;2023-05-10T10:47:47;17.6;65.4
78708;SHT31;68037;51.978;5.650;2023-05-10T10:50:19;17.6;65.3
78708;SHT31;68037;51.978;5.650;2023-05-10T10:52:52;17.7;65.9
78708;SHT31;68037;51.978;5.650;2023-05-10T10:55:22;17.7;65.6
78708;SHT31;68037;51.978;5.650;2023-05-10T10:57:57;17.7;65.1
78708;SHT31;68037;51.978;5.650;2023-05-10T11:00:32;17.7;65.2
78708;SHT31;68037;51.978;5.650;2023-05-10T11:03:06;17.7;64.9
78708;SHT31;68037;51.978;5.650;2023-05-10T11:05:40;17.6;64.9
78708;SHT31;68037;51.978;5.650;2023-05-10T11:08:12;17.6;65.4
78708;SHT31;68037;51.978;5.650;2023-05-10T11:10:52;17.6;66.2
78708;SHT31;68037;51.978;5.650;2023-05-10T11:13:32;17.6;65.4
78708;SHT31;68037;51.978;5.650;2023-05-10T11:16:12;17.6;65.9
78708;SHT31;68037;51.978;5.650;2023-05-10T11:18:56;17.6;65.8
78708;SHT31;68037;51.978;5.650;2023-05-10T11:21:28;17.7;65.6
78708;SHT31;68037;51.978;5.650;2023-05-10T11:23:59;17.7;65.4
78708;SHT31;68037;51.978;5.650;2023-05-10T11:26:34;17.7;66.2
78708;SHT31;68037;51.978;5.650;2023-05-10T11:29:06;17.7;66.1
78708;SHT31;68037;51.978;5.650;2023-05-10T11:31:44;17.8;66.2
78708;SHT31;68037;51.978;5.650;2023-05-10T11:34:25;17.8;65.7
78708;SHT31;68037;51.978;5.650;2023-05-10T11:36:55;17.8;65.4
78708;SHT31;68037;51.978;5.650;2023-05-10T11:39:31;17.9;64.2
78708;SHT31;68037;51.978;5.650;2023-05-10T11:42:05;18.0;65.7
78708;SHT31;68037;51.978;5.650;2023-05-10T11:44:36;18.1;65.2
78708;SHT31;68037;51.978;5.650;2023-05-10T11:47:06;18.3;64.3
78708;SHT31;68037;51.978;5.650;2023-05-10T11:49:36;18.4;62.9
78708;SHT31;68037;51.978;5.650;2023-05-10T11:52:07;18.4;62.5
78708;SHT31;68037;51.978;5.650;2023-05-10T11:54:52;18.5;62.7
78708;SHT31;68037;51.978;5.650;2023-05-10T11:57:28;18.5;63.5
78708;SHT31;68037;51.978;5.650;2023-05-10T11:59:58;18.5;61.7
78708;SHT31;68037;51.978;5.650;2023-05-10T12:02:31;18.5;61.6
78708;SHT31;68037;51.978;5.650;2023-05-10T12:05:01;18.5;61.8
78708;SHT31;68037;51.978;5.650;2023-05-10T12:07:32;18.5;62.4
78708;SHT31;68037;51.978;5.650;2023-05-10T12:10:08;18.6;63.2
78708;SHT31;68037;51.978;5.650;2023-05-10T12:12:42;18.6;63.1
78708;SHT31;68037;51.978;5.650;2023-05-10T12:15:17;18.7;63.4
78708;SHT31;68037;51.978;5.650;2023-05-10T12:17:50;18.8;62.9
78708;SHT31;68037;51.978;5.650;2023-05-10T12:20:22;18.8;63.6
78708;SHT31;68037;51.978;5.650;2023-05-10T12:22:54;18.9;61.9
78708;SHT31;68037;51.978;5.650;2023-05-10T12:25:31;18.9;62.3
78708;SHT31;68037;51.978;5.650;2023-05-10T12:28:04;18.9;61.3
78708;SHT31;68037;51.978;5.650;2023-05-10T12:30:35;19.0;61.6
78708;SHT31;68037;51.978;5.650;2023-05-10T12:33:11;19.0;62.7
78708;SHT31;68037;51.978;5.650;2023-05-10T12:35:47;19.0;61.8
78708;SHT31;68037;51.978;5.650;2023-05-10T12:38:29;19.1;61.8
78708;SHT31;68037;51.978;5.650;2023-05-10T12:41:01;19.1;62.2
78708;SHT31;68037;51.978;5.650;2023-05-10T12:43:32;19.2;60.8
78708;SHT31;68037;51.978;5.650;2023-05-10T12:46:06;19.2;59.9
78708;SHT31;68037;51.978;5.650;2023-05-10T12:48:38;19.2;60.6
78708;SHT31;68037;51.978;5.650;2023-05-10T12:51:11;19.2;61.4
78708;SHT31;68037;51.978;5.650;2023-05-10T12:53:44;19.2;60.6
78708;SHT31;68037;51.978;5.650;2023-05-10T12:56:17;19.2;60.3
78708;SHT31;68037;51.978;5.650;2023-05-10T12:58:47;19.2;60.7
78708;SHT31;68037;51.978;5.650;2023-05-10T13:01:17;19.2;61.2
78708;SHT31;68037;51.978;5.650;2023-05-10T13:03:46;19.2;61.8
78708;SHT31;68037;51.978;5.650;2023-05-10T13:06:16;19.2;61.6
78708;SHT31;68037;51.978;5.650;2023-05-10T13:08:45;19.1;62.4
78708;SHT31;68037;51.978;5.650;2023-05-10T13:11:15;19.1;62.9
78708;SHT31;68037;51.978;5.650;2023-05-10T13:13:48;19.1;63.0
78708;SHT31;68037;51.978;5.650;2023-05-10T13:16:18;19.1;63.4
78708;SHT31;68037;51.978;5.650;2023-05-10T13:18:47;19.0;63.4
78708;SHT31;68037;51.978;5.650;2023-05-10T13:21:17;19.0;63.4
78708;SHT31;68037;51.978;5.650;2023-05-10T13:23:46;19.0;63.8
78708;SHT31;68037;51.978;5.650;2023-05-10T13:26:16;18.9;65.1
78708;SHT31;68037;51.978;5.650;2023-05-10T13:28:45;18.9;65.2
78708;SHT31;68037;51.978;5.650;2023-05-10T13:31:16;18.8;66.6
78708;SHT31;68037;51.978;5.650;2023-05-10T13:33:46;18.7;67.0
78708;SHT31;68037;51.978;5.650;2023-05-10T13:36:17;18.6;69.3
78708;SHT31;68037;51.978;5.650;2023-05-10T13:38:46;18.4;69.6
78708;SHT31;68037;51.978;5.650;2023-05-10T13:41:16;18.3;71.0
78708;SHT31;68037;51.978;5.650;2023-05-10T13:43:45;18.2;71.3
78708;SHT31;68037;51.978;5.650;2023-05-10T13:46:16;18.1;71.2
78708;SHT31;68037;51.978;5.650;2023-05-10T13:48:46;18.0;72.1
78708;SHT31;68037;51.978;5.650;2023-05-10T13:51:15;17.9;71.9
78708;SHT31;68037;51.978;5.650;2023-05-10T13:53:51;17.9;71.1
78708;SHT31;68037;51.978;5.650;2023-05-10T13:56:20;17.9;69.8
78708;SHT31;68037;51.978;5.650;2023-05-10T13:58:50;17.8;69.6
78708;SHT31;68037;51.978;5.650;2023-05-10T14:01:21;17.8;69.9
78708;SHT31;68037;51.978;5.650;2023-05-10T14:03:53;17.7;70.8
78708;SHT31;68037;51.978;5.650;2023-05-10T14:06:22;17.6;70.7
78708;SHT31;68037;51.978;5.650;2023-05-10T14:08:52;17.6;71.0
78708;SHT31;68037;51.978;5.650;2023-05-10T14:11:21;17.5;71.9
78708;SHT31;68037;51.978;5.650;2023-05-10T14:13:51;17.5;73.0
78708;SHT31;68037;51.978;5.650;2023-05-10T14:16:22;17.5;72.9
78708;SHT31;68037;51.978;5.650;2023-05-10T14:18:51;17.4;73.2
78708;SHT31;68037;51.978;5.650;2023-05-10T14:21:21;17.4;72.6
78708;SHT31;68037;51.978;5.650;2023-05-10T14:23:50;17.4;72.9
78708;SHT31;68037;51.978;5.650;2023-05-10T14:26:21;17.4;72.1
78708;SHT31;68037;51.978;5.650;2023-05-10T14:28:53;17.3;72.0
78708;SHT31;68037;51.978;5.650;2023-05-10T14:31:23;17.3;71.9
78708;SHT31;68037;51.978;5.650;2023-05-10T14:33:53;17.2;72.0
78708;SHT31;68037;51.978;5.650;2023-05-10T14:36:23;17.1;72.9
78708;SHT31;68037;51.978;5.650;2023-05-10T14:38:52;17.0;73.1
78708;SHT31;68037;51.978;5.650;2023-05-10T14:41:24;17.0;73.9
78708;SHT31;68037;51.978;5.650;2023-05-10T14:43:53;16.9;74.4
78708;SHT31;68037;51.978;5.650;2023-05-10T14:46:23;16.9;74.8
78708;SHT31;68037;51.978;5.650;2023-05-10T14:48:53;16.8;73.5
78708;SHT31;68037;51.978;5.650;2023-05-10T14:51:22;16.8;73.8
78708;SHT31;68037;51.978;5.650;2023-05-10T14:53:53;16.8;74.0
78708;SHT31;68037;51.978;5.650;2023-05-10T14:56:23;16.7;74.7
78708;SHT31;68037;51.978;5.650;2023-05-10T14:58:55;16.7;74.4
78708;SHT31;68037;51.978;5.650;2023-05-10T15:01:25;16.7;74.3
78708;SHT31;68037;51.978;5.650;2023-05-10T15:03:54;16.7;75.3
78708;SHT31;68037;51.978;5.650;2023-05-10T15:06:32;16.7;76.7
78708;SHT31;68037;51.978;5.650;2023-05-10T15:09:02;16.8;76.9
78708;SHT31;68037;51.978;5.650;2023-05-10T15:11:32;16.9;75.9
78708;SHT31;68037;51.978;5.650;2023-05-10T15:14:02;16.9;75.4
78708;SHT31;68037;51.978;5.650;2023-05-10T15:16:32;17.0;76.9
78708;SHT31;68037;51.978;5.650;2023-05-10T15:19:01;17.1;74.6
78708;SHT31;68037;51.978;5.650;2023-05-10T15:21:31;17.2;74.9
78708;SHT31;68037;51.978;5.650;2023-05-10T15:24:06;17.2;75.7
78708;SHT31;68037;51.978;5.650;2023-05-10T15:26:35;17.4;73.6
78708;SHT31;68037;51.978;5.650;2023-05-10T15:29:05;17.5;73.1
78708;SHT31;68037;51.978;5.650;2023-05-10T15:31:35;17.5;73.4
78708;SHT31;68037;51.978;5.650;2023-05-10T15:34:04;17.6;74.8
78708;SHT31;68037;51.978;5.650;2023-05-10T15:36:34;17.8;72.2
78708;SHT31;68037;51.978;5.650;2023-05-10T15:39:03;17.9;71.8
78708;SHT31;68037;51.978;5.650;2023-05-10T15:41:33;18.0;71.9
78708;SHT31;68037;51.978;5.650;2023-05-10T15:44:04;18.2;70.5
78708;SHT31;68037;51.978;5.650;2023-05-10T15:46:35;18.4;69.8
78708;SHT31;68037;51.978;5.650;2023-05-10T15:49:05;18.6;69.0
78708;SHT31;68037;51.978;5.650;2023-05-10T15:51:37;18.7;67.7
78708;SHT31;68037;51.978;5.650;2023-05-10T15:54:08;18.8;67.5
78708;SHT31;68037;51.978;5.650;2023-05-10T15:56:40;18.9;67.3
78708;SHT31;68037;51.978;5.650;2023-05-10T15:59:09;18.9;67.9
78708;SHT31;68037;51.978;5.650;2023-05-10T16:01:39;18.9;68.5
78708;SHT31;68037;51.978;5.650;2023-05-10T16:04:09;19.0;67.3
78708;SHT31;68037;51.978;5.650;2023-05-10T16:06:38;19.0;66.3
78708;SHT31;68037;51.978;5.650;2023-05-10T16:09:08;18.9;67.2
78708;SHT31;68037;51.978;5.650;2023-05-10T16:11:38;18.9;67.4
78708;SHT31;68037;51.978;5.650;2023-05-10T16:14:10;19.0;68.3
78708;SHT31;68037;51.978;5.650;2023-05-10T16:16:40;19.0;67.1
78708;SHT31;68037;51.978;5.650;2023-05-10T16:19:12;19.0;66.2
78708;SHT31;68037;51.978;5.650;2023-05-10T16:21:42;19.0;66.0
78708;SHT31;68037;51.978;5.650;2023-05-10T16:24:11;18.9;67.4
78708;SHT31;68037;51.978;5.650;2023-05-10T16:26:41;18.9;66.6
78708;SHT31;68037;51.978;5.650;2023-05-10T16:29:11;18.9;65.8
78708;SHT31;68037;51.978;5.650;2023-05-10T16:31:42;18.9;67.2